Ordot, Guam
Current Conditions -  °F | °C
As of 4:54 AM on Monday 24 Nov 2014 (Local Time) from PGUM Reporting Station
Few Clouds Few Clouds  
Wind Chill: 27°   Ceiling: Unl
Heat Index: 31°   Visibility: 10mi
Dew Point: 25°   Wind: 8mph
Humidity: 88%   Direction: 80°E
Pressure: 29.86"   Gusts: NA
Location:  13.4744°N, 144.7478°E
Report Text: PGUM 231854Z 08007KT 10SM FEW016 27/25 A2986 RMK AO2 SLP102 T02720250
Loading
Personal Weather Stations






























Interactive Weather Map New forecast layout! Learn more

10-Day Weather Forecast

Advertisements
Track Severe Weather on mobile